createdAt,value
2022-08-12T00:00:01.461Z,53.73
2022-08-12T00:02:48.060Z,53.41
2022-08-12T00:05:35.292Z,53.01
2022-08-12T00:08:28.732Z,53.48
2022-08-12T00:11:22.984Z,53.79
2022-08-12T00:14:08.564Z,53.03
2022-08-12T00:16:55.678Z,53.30
2022-08-12T00:19:41.268Z,54.10
2022-08-12T00:22:28.554Z,53.03
2022-08-12T00:25:21.556Z,53.42
2022-08-12T00:28:27.154Z,52.96
2022-08-12T00:31:13.098Z,53.49
2022-08-12T00:33:58.216Z,54.66
2022-08-12T00:36:50.271Z,53.33
2022-08-12T00:39:36.292Z,53.95
2022-08-12T00:42:10.907Z,53.35
2022-08-12T00:44:45.555Z,53.49
2022-08-12T00:47:24.018Z,54.38
2022-08-12T00:49:53.977Z,54.74
2022-08-12T00:52:22.504Z,53.53
2022-08-12T00:54:58.747Z,53.96
2022-08-12T00:57:37.774Z,55.23
2022-08-12T01:00:11.585Z,54.99
2022-08-12T01:02:47.139Z,54.91
2022-08-12T01:05:35.904Z,54.60
2022-08-12T01:08:22.064Z,55.16
2022-08-12T01:11:08.606Z,55.01
2022-08-12T01:13:41.023Z,55.53
2022-08-12T01:16:09.473Z,54.57
2022-08-12T01:18:38.917Z,55.37
2022-08-12T01:21:39.556Z,54.12
2022-08-12T01:24:31.904Z,54.63
2022-08-12T01:27:01.447Z,56.32
2022-08-12T01:29:32.681Z,55.44
2022-08-12T01:32:05.534Z,55.07
2022-08-12T01:34:39.434Z,55.92
2022-08-12T01:37:08.839Z,56.37
2022-08-12T01:40:34.535Z,55.35
2022-08-12T01:42:34.149Z,55.74
2022-08-12T01:45:02.483Z,55.29
2022-08-12T01:47:35.524Z,55.20
2022-08-12T01:50:17.355Z,54.98
2022-08-12T01:53:11.337Z,55.94
2022-08-12T01:55:41.995Z,55.47
2022-08-12T01:58:18.829Z,55.90
2022-08-12T02:00:59.158Z,55.21
2022-08-12T02:04:21.469Z,55.69
2022-08-12T02:07:31.677Z,55.24
2022-08-12T02:11:01.467Z,56.10
2022-08-12T02:13:49.140Z,55.47
2022-08-12T02:16:31.863Z,55.33
2022-08-12T02:19:22.898Z,55.06
2022-08-12T02:22:28.267Z,55.07
2022-08-12T02:25:18.667Z,55.02
2022-08-12T02:27:48.572Z,55.06
2022-08-12T02:30:19.429Z,55.13
2022-08-12T02:32:48.832Z,55.35
2022-08-12T02:35:21.108Z,55.16
2022-08-12T02:37:50.073Z,54.24
2022-08-12T02:40:18.239Z,55.44
2022-08-12T02:42:53.896Z,54.86
2022-08-12T02:45:53.623Z,55.20
2022-08-12T02:48:27.262Z,55.14
2022-08-12T02:50:58.397Z,55.31
2022-08-12T02:53:26.963Z,55.42
2022-08-12T02:55:54.265Z,55.26
2022-08-12T02:58:21.050Z,55.76
2022-08-12T03:01:01.657Z,56.20
2022-08-12T03:03:32.416Z,55.51
2022-08-12T03:06:01.960Z,56.14
2022-08-12T03:08:33.122Z,56.45
2022-08-12T03:11:19.696Z,56.34
2022-08-12T03:13:52.071Z,56.11
2022-08-12T03:16:20.942Z,57.29
2022-08-12T03:18:49.534Z,56.36
2022-08-12T03:21:53.063Z,57.63
2022-08-12T03:24:09.007Z,56.38
2022-08-12T03:26:36.958Z,57.65
2022-08-12T03:29:07.601Z,58.78
2022-08-12T03:31:34.615Z,58.77
2022-08-12T03:34:12.400Z,59.93
2022-08-12T03:36:41.685Z,59.97
2022-08-12T03:39:18.537Z,58.67
2022-08-12T03:42:06.975Z,60.13
2022-08-12T03:45:04.428Z,59.67
2022-08-12T03:47:49.759Z,60.32
2022-08-12T03:50:35.782Z,60.90
2022-08-12T03:53:24.680Z,61.33
2022-08-12T03:56:10.394Z,62.26
2022-08-12T03:58:56.562Z,62.04
2022-08-12T04:01:23.569Z,62.38
2022-08-12T04:03:53.462Z,63.02
2022-08-12T04:06:35.393Z,62.55
2022-08-12T04:09:16.279Z,63.33
2022-08-12T04:12:03.368Z,63.52
2022-08-12T04:14:30.478Z,62.49
2022-08-12T04:16:57.908Z,63.33
2022-08-12T04:19:26.235Z,63.47
2022-08-12T04:22:01.821Z,62.27
2022-08-12T04:24:37.992Z,62.62
2022-08-12T04:27:09.904Z,63.01
2022-08-12T04:30:30.138Z,62.37
2022-08-12T04:32:25.990Z,62.33
2022-08-12T04:34:53.333Z,62.56
2022-08-12T04:37:20.232Z,62.21
2022-08-12T04:39:47.379Z,61.40
2022-08-12T04:42:14.450Z,61.43
2022-08-12T04:44:42.223Z,60.74
2022-08-12T04:47:17.110Z,60.73
2022-08-12T04:49:48.314Z,60.35
2022-08-12T04:52:15.228Z,60.11
2022-08-12T04:54:43.940Z,59.99
2022-08-12T04:57:10.919Z,58.13
2022-08-12T04:59:47.329Z,58.98
2022-08-12T05:02:22.854Z,56.81
2022-08-12T05:05:00.631Z,56.08
2022-08-12T05:07:27.767Z,55.97
2022-08-12T05:10:00.337Z,55.93
2022-08-12T05:12:36.121Z,53.84
2022-08-12T05:15:27.502Z,53.78
2022-08-12T05:17:51.977Z,56.88
2022-08-12T05:20:21.107Z,54.22
2022-08-12T05:22:48.025Z,52.09
2022-08-12T05:25:17.772Z,52.04
2022-08-12T05:27:55.444Z,52.43
2022-08-12T05:30:31.042Z,52.25
2022-08-12T05:33:00.291Z,51.11
2022-08-12T05:35:28.039Z,51.44
2022-08-12T05:38:14.902Z,49.14
2022-08-12T05:40:42.154Z,49.47
2022-08-12T05:43:09.062Z,48.39
2022-08-12T05:45:35.790Z,45.75
2022-08-12T05:48:02.812Z,45.47
2022-08-12T05:50:29.633Z,45.39
2022-08-12T05:52:56.413Z,43.73
2022-08-12T05:55:25.819Z,45.44
2022-08-12T05:57:56.179Z,42.92
2022-08-12T06:00:25.909Z,41.23
2022-08-12T06:03:01.457Z,43.79
2022-08-12T06:05:28.975Z,42.52
2022-08-12T06:08:01.284Z,41.13
2022-08-12T06:10:32.171Z,41.75
2022-08-12T06:13:04.138Z,42.42
2022-08-12T06:15:32.120Z,42.72
2022-08-12T06:18:16.248Z,45.15
2022-08-12T06:20:43.942Z,42.19
2022-08-12T06:23:11.863Z,40.88
2022-08-12T06:25:39.110Z,41.95
2022-08-12T06:28:17.613Z,44.40
2022-08-12T06:30:57.319Z,41.20
2022-08-12T06:33:55.465Z,40.45
2022-08-12T06:36:29.340Z,42.87
2022-08-12T06:38:56.858Z,40.03
2022-08-12T06:42:05.203Z,40.35
2022-08-12T06:44:28.853Z,41.25
2022-08-12T06:46:56.882Z,40.90
2022-08-12T06:49:25.455Z,43.34
2022-08-12T06:51:56.367Z,44.20
2022-08-12T06:54:31.359Z,42.30
2022-08-12T06:57:05.406Z,40.84
2022-08-12T06:59:46.724Z,39.81
2022-08-12T07:02:13.820Z,39.44
2022-08-12T07:04:40.681Z,37.29
2022-08-12T07:07:10.972Z,37.22
2022-08-12T07:10:06.032Z,36.31
2022-08-12T07:12:27.914Z,36.78
2022-08-12T07:14:58.999Z,36.41
2022-08-12T07:17:31.661Z,36.19
2022-08-12T07:20:04.015Z,36.27
2022-08-12T07:22:31.351Z,38.63
2022-08-12T07:25:16.860Z,39.06
2022-08-12T07:27:44.214Z,35.00
2022-08-12T07:30:11.637Z,34.36
2022-08-12T07:32:38.474Z,34.08
2022-08-12T07:35:05.611Z,36.49
2022-08-12T07:37:33.621Z,34.86
2022-08-12T07:40:01.301Z,34.17
2022-08-12T07:42:29.688Z,33.13
2022-08-12T07:44:56.865Z,33.72
2022-08-12T07:47:24.382Z,32.30
2022-08-12T07:50:03.603Z,32.98
2022-08-12T07:52:33.953Z,33.37
2022-08-12T07:55:01.140Z,32.54
2022-08-12T07:57:27.856Z,34.96
2022-08-12T07:59:55.943Z,31.77
2022-08-12T08:02:27.134Z,32.72
2022-08-12T08:04:57.366Z,33.05
2022-08-12T08:07:30.864Z,30.36
2022-08-12T08:10:02.338Z,32.69
2022-08-12T08:12:48.348Z,31.43
2022-08-12T08:15:16.088Z,31.88
2022-08-12T08:18:04.529Z,32.26
2022-08-12T08:20:43.235Z,30.67
2022-08-12T08:23:19.425Z,30.25
2022-08-12T08:25:46.346Z,30.70
2022-08-12T08:28:19.610Z,28.94
2022-08-12T08:30:47.906Z,30.57
2022-08-12T08:33:23.525Z,30.18
2022-08-12T08:36:05.253Z,29.56
2022-08-12T08:38:34.854Z,28.54
2022-08-12T08:42:18.802Z,28.83
2022-08-12T08:44:13.373Z,29.40
2022-08-12T08:46:41.418Z,29.22
2022-08-12T08:49:08.657Z,30.16
2022-08-12T08:51:36.526Z,31.03
2022-08-12T08:54:03.469Z,29.21
2022-08-12T08:56:30.542Z,28.77
2022-08-12T08:59:00.633Z,28.68
2022-08-12T09:01:37.441Z,30.27
2022-08-12T09:05:09.146Z,29.76
2022-08-12T09:12:54.562Z,29.76
2022-08-12T09:18:14.433Z,28.80
2022-08-12T09:20:42.882Z,29.93
2022-08-12T09:23:58.695Z,28.96
2022-08-12T09:26:04.324Z,30.38
2022-08-12T09:32:04.112Z,28.12
2022-08-12T09:34:26.053Z,29.31
2022-08-12T09:37:01.205Z,27.24
2022-08-12T09:40:01.743Z,26.74
2022-08-12T09:42:43.992Z,27.71
2022-08-12T09:45:23.312Z,26.46
2022-08-12T09:47:58.835Z,27.66
2022-08-12T09:50:27.116Z,26.83
2022-08-12T09:53:29.526Z,27.78
2022-08-12T09:58:59.696Z,27.19
2022-08-12T10:01:35.470Z,26.49
2022-08-12T10:04:19.446Z,25.88
2022-08-12T10:06:55.316Z,26.17
2022-08-12T10:09:56.890Z,26.97
2022-08-12T10:12:33.109Z,28.20
2022-08-12T10:15:02.079Z,26.06
2022-08-12T10:17:29.002Z,27.75
2022-08-12T10:19:55.779Z,27.37
2022-08-12T10:22:40.084Z,27.14
2022-08-12T10:26:34.420Z,26.75
2022-08-12T10:28:39.029Z,26.74
2022-08-12T10:31:06.669Z,26.50
2022-08-12T10:34:04.891Z,26.73
2022-08-12T10:36:40.893Z,25.69
2022-08-12T10:39:59.992Z,24.99
2022-08-12T10:42:29.258Z,25.66
2022-08-12T10:45:01.196Z,26.35
2022-08-12T10:48:07.862Z,26.36
2022-08-12T10:50:32.617Z,27.19
2022-08-12T10:53:11.241Z,25.82
2022-08-12T10:55:47.373Z,27.22
2022-08-12T10:58:27.830Z,27.15
2022-08-12T11:01:49.062Z,28.65
2022-08-12T11:04:26.122Z,29.00
2022-08-12T11:07:06.339Z,28.41
2022-08-12T11:09:51.411Z,29.71
2022-08-12T11:12:55.019Z,28.05
2022-08-12T11:14:59.323Z,28.92
2022-08-12T11:17:43.541Z,27.70
2022-08-12T11:20:15.305Z,26.07
2022-08-12T11:22:42.544Z,26.09
2022-08-12T11:25:25.033Z,24.96
2022-08-12T11:28:13.397Z,25.91
2022-08-12T11:30:40.708Z,25.05
2022-08-12T11:33:12.120Z,25.61
2022-08-12T11:35:54.054Z,25.90
2022-08-12T11:38:24.365Z,25.23
2022-08-12T11:40:51.844Z,25.15
2022-08-12T11:43:20.465Z,25.21
2022-08-12T11:45:52.913Z,24.67
2022-08-12T11:48:20.568Z,24.18
2022-08-12T11:50:54.219Z,25.36
2022-08-12T11:53:57.302Z,26.75
2022-08-12T11:56:11.481Z,25.61
2022-08-12T12:01:02.731Z,26.08
2022-08-12T12:02:01.350Z,24.74
2022-08-12T12:04:11.812Z,23.82
2022-08-12T12:06:38.659Z,24.27
2022-08-12T12:09:08.017Z,22.88
2022-08-12T12:11:49.052Z,24.50
2022-08-12T12:14:17.884Z,25.00
2022-08-12T12:16:48.260Z,25.31
2022-08-12T12:19:17.841Z,25.78
2022-08-12T12:21:48.361Z,24.91
2022-08-12T12:24:22.141Z,25.20
2022-08-12T12:27:00.195Z,25.63
2022-08-12T12:30:13.867Z,25.76
2022-08-12T12:32:18.352Z,26.55
2022-08-12T12:35:14.404Z,26.27
2022-08-12T12:38:03.485Z,27.42
2022-08-12T12:40:21.539Z,27.76
2022-08-12T12:42:57.723Z,26.55
2022-08-12T12:45:28.358Z,26.24
2022-08-12T12:48:02.635Z,25.86
2022-08-12T12:50:45.011Z,25.82
2022-08-12T12:54:06.949Z,26.34
2022-08-12T12:56:13.611Z,26.17
2022-08-12T12:58:40.385Z,25.47
2022-08-12T13:01:26.891Z,25.80
2022-08-12T13:04:02.383Z,25.53
2022-08-12T13:06:30.937Z,25.13
2022-08-12T13:09:03.434Z,25.31
2022-08-12T13:11:41.213Z,26.54
2022-08-12T13:14:13.029Z,26.67
2022-08-12T13:16:55.372Z,26.66
2022-08-12T13:19:26.071Z,25.75
2022-08-12T13:22:20.402Z,28.68
2022-08-12T13:24:55.008Z,26.51
2022-08-12T13:27:23.259Z,26.76
2022-08-12T13:30:00.839Z,27.10
2022-08-12T13:32:41.487Z,28.05
2022-08-12T13:35:20.419Z,27.33
2022-08-12T13:37:57.639Z,27.22
2022-08-12T13:40:27.392Z,26.74
2022-08-12T13:42:59.066Z,29.37
2022-08-12T13:45:29.126Z,26.70
2022-08-12T13:48:00.366Z,27.53
2022-08-12T13:50:38.817Z,28.12
2022-08-12T13:53:24.669Z,27.39
2022-08-12T13:55:59.298Z,27.90
2022-08-12T13:58:26.694Z,28.43
2022-08-12T14:00:54.711Z,28.85
2022-08-12T14:03:28.706Z,28.40
2022-08-12T14:06:15.334Z,28.68
2022-08-12T14:08:43.776Z,28.26
2022-08-12T14:11:12.435Z,29.46
2022-08-12T14:14:03.576Z,30.43
2022-08-12T14:16:38.213Z,29.99
2022-08-12T14:19:21.785Z,30.29
2022-08-12T14:22:00.792Z,29.84
2022-08-12T14:24:40.450Z,28.52
2022-08-12T14:27:10.280Z,29.01
2022-08-12T14:30:04.592Z,29.01
2022-08-12T14:32:35.596Z,29.11
2022-08-12T14:35:09.006Z,28.73
2022-08-12T14:37:56.407Z,29.54
2022-08-12T14:40:30.055Z,29.03
2022-08-12T14:42:58.401Z,29.28
2022-08-12T14:45:44.874Z,29.50
2022-08-12T14:48:13.654Z,29.83
2022-08-12T14:51:09.679Z,29.30
2022-08-12T14:59:57.305Z,29.36
2022-08-12T15:02:20.926Z,30.07
2022-08-12T15:05:03.878Z,30.67
2022-08-12T15:07:34.307Z,30.51
2022-08-12T15:10:31.305Z,29.82
2022-08-12T15:12:59.730Z,30.31
2022-08-12T15:15:28.270Z,30.69
2022-08-12T15:18:02.176Z,29.53
2022-08-12T15:20:37.301Z,30.25
2022-08-12T15:23:18.023Z,30.04
2022-08-12T15:25:48.891Z,30.35
2022-08-12T15:28:24.080Z,30.80
2022-08-12T15:30:54.877Z,30.42
2022-08-12T15:33:25.311Z,30.68
2022-08-12T15:36:19.549Z,31.04
2022-08-12T15:39:04.154Z,30.84
2022-08-12T15:41:49.835Z,32.09
2022-08-12T15:44:41.590Z,32.01
2022-08-12T15:47:05.208Z,31.81
2022-08-12T15:49:42.960Z,31.91
2022-08-12T15:52:10.215Z,32.51
2022-08-12T15:54:53.948Z,32.34
2022-08-12T15:57:25.366Z,32.79
2022-08-12T16:00:06.723Z,33.50
2022-08-12T16:02:47.380Z,33.28
2022-08-12T16:06:13.249Z,32.56
2022-08-12T16:08:17.250Z,32.55
2022-08-12T16:10:45.596Z,33.23
2022-08-12T16:13:16.212Z,32.91
2022-08-12T16:16:01.702Z,33.61
2022-08-12T16:18:31.486Z,33.30
2022-08-12T16:20:58.343Z,33.16
2022-08-12T16:23:51.293Z,35.43
2022-08-12T16:26:15.080Z,34.41
2022-08-12T16:28:43.227Z,35.00
2022-08-12T16:31:14.380Z,34.26
2022-08-12T16:33:58.620Z,35.41
2022-08-12T16:36:27.124Z,34.71
2022-08-12T16:38:53.828Z,35.22
2022-08-12T16:41:22.537Z,35.50
2022-08-12T16:43:50.546Z,35.71
2022-08-12T16:46:32.301Z,36.11
2022-08-12T16:49:04.115Z,36.44
2022-08-12T16:51:40.469Z,37.19
2022-08-12T16:54:15.982Z,37.66
2022-08-12T16:56:55.306Z,36.96
2022-08-12T16:59:30.821Z,38.24
2022-08-12T17:02:31.635Z,39.45
2022-08-12T17:05:07.421Z,38.69
2022-08-12T17:07:43.422Z,37.38
2022-08-12T17:10:18.196Z,39.00
2022-08-12T17:12:45.385Z,37.64
2022-08-12T17:15:50.682Z,38.39
2022-08-12T17:18:39.055Z,38.75
2022-08-12T17:20:49.315Z,39.60
2022-08-12T17:23:18.085Z,40.11
2022-08-12T17:25:53.038Z,40.43
2022-08-12T17:28:22.520Z,39.86
2022-08-12T17:30:57.438Z,40.80
2022-08-12T17:33:26.971Z,41.40
2022-08-12T17:35:58.654Z,42.07
2022-08-12T17:38:25.383Z,41.02
2022-08-12T17:40:54.532Z,40.55
2022-08-12T17:43:56.247Z,39.17
2022-08-12T17:46:12.955Z,39.75
2022-08-12T17:48:54.812Z,40.85
2022-08-12T17:51:24.545Z,40.85
2022-08-12T17:54:10.543Z,39.63
2022-08-12T17:56:43.209Z,40.49
2022-08-12T17:59:12.301Z,40.58
2022-08-12T18:01:43.252Z,40.69
2022-08-12T18:04:21.943Z,40.04
2022-08-12T18:06:51.945Z,40.42
2022-08-12T18:09:21.240Z,41.08
2022-08-12T18:12:08.236Z,40.32
2022-08-12T18:14:36.917Z,40.80
2022-08-12T18:17:08.213Z,40.52
2022-08-12T18:20:05.421Z,40.03
2022-08-12T18:22:30.490Z,39.88
2022-08-12T18:25:02.735Z,40.15
2022-08-12T18:27:43.700Z,40.13
2022-08-12T18:30:16.400Z,39.87
2022-08-12T18:32:58.275Z,39.22
2022-08-12T18:35:29.981Z,39.76
2022-08-12T18:38:16.734Z,39.69
2022-08-12T18:41:04.152Z,39.39
2022-08-12T18:43:38.994Z,40.01
2022-08-12T18:46:27.512Z,40.39
2022-08-12T18:48:57.950Z,39.18
2022-08-12T18:52:02.263Z,39.77
2022-08-12T18:54:36.399Z,40.03
2022-08-12T18:57:20.023Z,39.76
2022-08-12T18:59:59.981Z,40.44
2022-08-12T19:02:32.110Z,40.89
2022-08-12T19:04:59.033Z,41.34
2022-08-12T19:07:29.796Z,40.58
2022-08-12T19:10:13.990Z,40.78
2022-08-12T19:13:00.273Z,41.14
2022-08-12T19:15:30.086Z,40.26
2022-08-12T19:18:02.553Z,40.97
2022-08-12T19:20:30.628Z,41.02
2022-08-12T19:23:02.342Z,41.60
2022-08-12T19:26:01.641Z,41.09
2022-08-12T19:28:29.494Z,41.08
2022-08-12T19:31:15.586Z,40.44
2022-08-12T19:34:00.909Z,40.81
2022-08-12T19:36:34.713Z,41.03
2022-08-12T19:39:02.944Z,41.81
2022-08-12T19:42:01.426Z,41.74
2022-08-12T19:44:29.502Z,42.70
2022-08-12T19:46:56.536Z,42.17
2022-08-12T19:49:23.352Z,42.59
2022-08-12T19:51:51.159Z,43.46
2022-08-12T19:54:30.236Z,43.82
2022-08-12T19:56:58.554Z,44.28
2022-08-12T19:59:43.563Z,44.47
2022-08-12T20:02:34.660Z,45.33
2022-08-12T20:06:03.928Z,46.78
2022-08-12T20:07:59.045Z,46.77
2022-08-12T20:10:35.496Z,47.09
2022-08-12T20:13:19.294Z,47.59
2022-08-12T20:15:59.653Z,47.69
2022-08-12T20:18:44.173Z,48.39
2022-08-12T20:21:15.991Z,49.30
2022-08-12T20:23:59.868Z,49.21
2022-08-12T20:26:27.949Z,49.82
2022-08-12T20:28:55.544Z,50.36
2022-08-12T20:31:22.304Z,50.34
2022-08-12T20:33:56.359Z,51.25
2022-08-12T20:36:40.950Z,51.56
2022-08-12T20:39:35.850Z,52.34
2022-08-12T20:42:07.406Z,53.60
2022-08-12T20:44:40.532Z,54.09
2022-08-12T20:47:19.708Z,53.97
2022-08-12T20:49:55.429Z,54.72
2022-08-12T20:52:29.835Z,55.10
2022-08-12T20:54:58.021Z,55.49
2022-08-12T20:57:38.250Z,55.41
2022-08-12T21:00:16.335Z,56.02
2022-08-12T21:02:49.836Z,56.01
2022-08-12T21:06:09.616Z,56.57
2022-08-12T21:08:27.369Z,56.41
2022-08-12T21:10:59.117Z,56.85
2022-08-12T21:13:27.147Z,57.18
2022-08-12T21:15:59.751Z,57.08
2022-08-12T21:18:28.344Z,58.49
2022-08-12T21:20:58.959Z,58.54
2022-08-12T21:23:30.551Z,58.18
2022-08-12T21:26:01.595Z,57.72
2022-08-12T21:28:31.093Z,58.29
2022-08-12T21:32:35.032Z,58.23
2022-08-12T21:34:07.317Z,58.64
2022-08-12T21:36:39.844Z,58.60
2022-08-12T21:39:20.583Z,58.67
2022-08-12T21:41:53.317Z,59.31
2022-08-12T21:45:46.019Z,59.11
2022-08-12T21:47:20.984Z,59.50
2022-08-12T21:50:03.393Z,59.96
2022-08-12T21:52:40.412Z,60.08
2022-08-12T21:55:18.958Z,60.16
2022-08-12T21:57:53.360Z,60.87
2022-08-12T22:00:24.003Z,60.55
2022-08-12T22:04:01.626Z,60.60
2022-08-12T22:06:26.233Z,61.40
2022-08-12T22:09:02.081Z,61.32
2022-08-12T22:11:41.694Z,61.59
2022-08-12T22:14:21.849Z,62.78
2022-08-12T22:16:52.517Z,63.03
2022-08-12T22:19:22.975Z,62.06
2022-08-12T22:21:53.565Z,62.49
2022-08-12T22:24:26.716Z,63.45
2022-08-12T22:27:08.210Z,62.44
2022-08-12T22:30:16.090Z,63.97
2022-08-12T22:32:51.598Z,64.00
2022-08-12T22:35:55.237Z,63.77
2022-08-12T22:38:29.361Z,64.08
2022-08-12T22:41:00.548Z,64.81
2022-08-12T22:43:58.707Z,64.27
2022-08-12T22:46:52.873Z,64.44
2022-08-12T22:49:48.804Z,63.75
2022-08-12T22:52:13.207Z,63.90
2022-08-12T22:54:46.397Z,64.74
2022-08-12T22:57:49.401Z,64.75
2022-08-12T23:00:23.583Z,64.90
2022-08-12T23:02:51.655Z,65.28
2022-08-12T23:05:23.812Z,65.34
2022-08-12T23:08:13.778Z,66.26
2022-08-12T23:10:44.993Z,66.12
2022-08-12T23:13:30.197Z,66.02
2022-08-12T23:16:28.362Z,66.56
2022-08-12T23:19:38.319Z,66.83
2022-08-12T23:22:36.676Z,67.14
2022-08-12T23:24:53.701Z,67.06
2022-08-12T23:27:44.102Z,67.53
2022-08-12T23:30:25.018Z,67.63
2022-08-12T23:32:59.535Z,67.45
2022-08-12T23:35:46.065Z,67.42
2022-08-12T23:38:28.956Z,67.26
2022-08-12T23:40:58.315Z,67.72
2022-08-12T23:43:25.660Z,68.32
2022-08-12T23:46:00.890Z,68.56
2022-08-12T23:48:31.344Z,68.64
2022-08-12T23:51:01.289Z,69.02
2022-08-12T23:53:32.273Z,69.32
2022-08-12T23:55:59.609Z,68.55
2022-08-12T23:58:28.432Z,68.61
